Pagrindinis puslapis
METAR-TAF:

METAR-TAF

Oro uostai :

Hobart, Oklahoma, Jungtinės Amerikos Valstijos

platuma: 34-59-22N, ilguma: 099-03-09W, Aukštis: 476 m

Dabartinis oras

Ataskaita buvo paskelbta 49 minutes, ne 04:53 UTC
Vėjas 3 kt iš Pietryčių
Temperatūra 17°C
Drėgmė 77%
Slėgis 1019 hPa
Matomumas: 16.1 km
Giedras dangus

METAR: KHBR 220453Z AUTO 13003KT 10SM CLR 17/13 A3010 RMK AO2 SLP184 T01720128

Laikas: 00:42 (05:42 UTC)


TAF: trūkstamas

Orai ataskaitas ir orų prognozės (METAR, TAF).

turimą stotys yra geltonos ir raudonos taškus žemėlapyje.

Perkelti pele per norėdami pamatyti stoties vardą.

Tada spustelėkite, norėdami matyti oro stebėjimo ir prognozės.

Norėdami pakeisti žemėlapį: spustelėkite ant žalios mygtukų su juodo kryžiaus žemyn,; žalią mygtuką su brūkšneliu, jei norite nutolinti; arba žalių rodyklių gretimoms žemėlapius.


METAR-TAF: